createdAt,value
2019-04-21T00:00:57.203Z,1023.22
2019-04-21T00:01:50.550Z,1023.21
2019-04-21T00:02:48.576Z,1023.17
2019-04-21T00:03:53.261Z,1023.19
2019-04-21T00:04:57.936Z,1023.17
2019-04-21T00:06:08.855Z,1023.18
2019-04-21T00:07:08.681Z,1023.18
2019-04-21T00:08:10.887Z,1023.16
2019-04-21T00:09:11.502Z,1023.17
2019-04-21T00:10:07.669Z,1023.11
2019-04-21T00:11:10.764Z,1023.14
2019-04-21T00:12:12.296Z,1023.12
2019-04-21T00:13:04.954Z,1023.09
2019-04-21T00:14:01.898Z,1023.07
2019-04-21T00:14:59.390Z,1023.06
2019-04-21T00:15:53.998Z,1023.06
2019-04-21T00:16:55.542Z,1023.08
2019-04-21T00:17:51.780Z,1023.07
2019-04-21T00:18:54.924Z,1023.10
2019-04-21T00:19:47.655Z,1023.08
2019-04-21T00:20:50.122Z,1023.05
2019-04-21T00:21:53.499Z,1023.04
2019-04-21T00:22:58.803Z,1023.11
2019-04-21T00:24:00.912Z,1023.00
2019-04-21T00:25:05.318Z,1023.01
2019-04-21T00:25:58.128Z,1023.06
2019-04-21T00:27:08.193Z,1023.05
2019-04-21T00:28:09.730Z,1023.05
2019-04-21T00:29:14.075Z,1023.02
2019-04-21T00:30:12.469Z,1023.06
2019-04-21T00:31:04.302Z,1023.05
2019-04-21T00:32:01.778Z,1023.06
2019-04-21T00:32:56.366Z,1023.05
2019-04-21T00:33:49.677Z,1022.99
2019-04-21T00:34:52.313Z,1023.00
2019-04-21T00:35:56.231Z,1023.02
2019-04-21T00:36:57.373Z,1022.95
2019-04-21T00:38:07.891Z,1023.00
2019-04-21T00:39:21.993Z,1022.94
2019-04-21T00:40:09.199Z,1022.96
2019-04-21T00:41:09.263Z,1023.01
2019-04-21T00:42:07.471Z,1023.02
2019-04-21T00:43:03.586Z,1023.07
2019-04-21T00:44:00.674Z,1023.00
2019-04-21T00:45:04.905Z,1023.00
2019-04-21T00:45:57.794Z,1022.97
2019-04-21T00:47:00.091Z,1022.95
2019-04-21T00:48:11.360Z,1022.96
2019-04-21T00:49:01.604Z,1022.99
2019-04-21T00:50:07.512Z,1022.95
2019-04-21T00:52:25.119Z,1022.93
2019-04-21T00:53:05.683Z,1022.89
2019-04-21T00:54:12.869Z,1022.91
2019-04-21T00:55:24.978Z,1022.86
2019-04-21T00:56:10.677Z,1022.86
2019-04-21T00:57:11.503Z,1022.87
2019-04-21T00:58:10.953Z,1022.84
2019-04-21T00:59:13.916Z,1022.94
2019-04-21T01:00:16.459Z,1022.83
2019-04-21T01:01:09.060Z,1022.83
2019-04-21T01:02:05.832Z,1022.84
2019-04-21T01:03:08.409Z,1022.82
2019-04-21T01:04:09.687Z,1022.83
2019-04-21T01:05:11.263Z,1022.81
2019-04-21T01:06:14.381Z,1022.83
2019-04-21T01:07:07.248Z,1022.81
2019-04-21T01:08:09.423Z,1022.81
2019-04-21T01:09:02.640Z,1022.85
2019-04-21T01:10:03.554Z,1022.85
2019-04-21T01:11:11.732Z,1022.84
2019-04-21T01:12:08.341Z,1022.82
2019-04-21T01:13:09.649Z,1022.83
2019-04-21T01:14:16.617Z,1022.79
2019-04-21T01:15:11.035Z,1022.79
2019-04-21T01:16:10.195Z,1022.80
2019-04-21T01:17:14.561Z,1022.79
2019-04-21T01:18:09.049Z,1022.80
2019-04-21T01:19:05.091Z,1022.80
2019-04-21T01:20:01.244Z,1022.82
2019-04-21T01:20:46.544Z,1022.76
2019-04-21T01:21:45.535Z,1022.80
2019-04-21T01:22:45.529Z,1022.78
2019-04-21T01:23:46.495Z,1022.79
2019-04-21T01:24:48.729Z,1022.83
2019-04-21T01:26:05.243Z,1022.82
2019-04-21T01:26:59.674Z,1022.81
2019-04-21T01:27:58.998Z,1022.89
2019-04-21T01:29:08.669Z,1022.85
2019-04-21T01:30:14.290Z,1022.81
2019-04-21T01:31:06.703Z,1022.84
2019-04-21T01:32:13.511Z,1022.83
2019-04-21T01:33:07.944Z,1022.81
2019-04-21T01:34:13.157Z,1022.80
2019-04-21T01:35:08.725Z,1022.77
2019-04-21T01:36:03.905Z,1022.78
2019-04-21T01:37:05.924Z,1022.75
2019-04-21T01:38:06.884Z,1022.79
2019-04-21T01:39:08.403Z,1022.76
2019-04-21T01:40:14.289Z,1022.77
2019-04-21T01:41:12.960Z,1022.76
2019-04-21T01:42:07.594Z,1022.80
2019-04-21T01:43:10.162Z,1022.79
2019-04-21T01:44:04.866Z,1022.81
2019-04-21T01:45:05.458Z,1022.82
2019-04-21T01:46:06.711Z,1022.77
2019-04-21T01:47:02.865Z,1022.75
2019-04-21T01:48:01.324Z,1022.77
2019-04-21T01:49:01.487Z,1022.74
2019-04-21T01:49:56.548Z,1022.74
2019-04-21T01:51:02.638Z,1022.72
2019-04-21T01:52:18.099Z,1022.72
2019-04-21T01:53:10.872Z,1022.66
2019-04-21T01:54:09.131Z,1022.68
2019-04-21T01:55:06.013Z,1022.66
2019-04-21T01:56:10.672Z,1022.65
2019-04-21T01:57:03.379Z,1022.63
2019-04-21T01:58:01.434Z,1022.63
2019-04-21T01:58:53.895Z,1022.58
2019-04-21T01:59:57.070Z,1022.62
2019-04-21T02:01:03.552Z,1022.63
2019-04-21T02:02:05.284Z,1022.59
2019-04-21T02:03:10.698Z,1022.65
2019-04-21T02:04:12.153Z,1022.59
2019-04-21T02:05:13.401Z,1022.56
2019-04-21T02:06:13.738Z,1022.54
2019-04-21T02:07:11.644Z,1022.63
2019-04-21T02:08:08.148Z,1022.60
2019-04-21T02:09:04.954Z,1022.59
2019-04-21T02:10:11.425Z,1022.61
2019-04-21T02:11:11.251Z,1022.67
2019-04-21T02:12:11.415Z,1022.66
2019-04-21T02:13:03.543Z,1022.61
2019-04-21T02:14:09.835Z,1022.65
2019-04-21T02:15:12.638Z,1022.61
2019-04-21T02:16:06.884Z,1022.63
2019-04-21T02:17:07.647Z,1022.60
2019-04-21T02:18:07.046Z,1022.56
2019-04-21T02:19:08.464Z,1022.55
2019-04-21T02:20:00.113Z,1022.55
2019-04-21T02:20:53.906Z,1022.56
2019-04-21T02:22:00.707Z,1022.57
2019-04-21T02:23:17.825Z,1022.51
2019-04-21T02:24:15.176Z,1022.53
2019-04-21T02:25:08.275Z,1022.56
2019-04-21T02:26:12.777Z,1022.59
2019-04-21T02:27:06.827Z,1022.57
2019-04-21T02:28:11.675Z,1022.54
2019-04-21T02:29:12.461Z,1022.57
2019-04-21T02:30:10.210Z,1022.57
2019-04-21T02:32:14.935Z,1022.59
2019-04-21T02:33:26.133Z,1022.60
2019-04-21T02:34:32.292Z,1022.57
2019-04-21T02:35:25.783Z,1022.60
2019-04-21T02:36:33.228Z,1022.56
2019-04-21T02:39:29.502Z,1022.60
2019-04-21T02:41:18.345Z,1022.55
2019-04-21T02:42:23.799Z,1022.57
2019-04-21T02:43:22.067Z,1022.48
2019-04-21T02:44:16.632Z,1022.52
2019-04-21T02:45:17.304Z,1022.53
2019-04-21T02:46:23.902Z,1022.49
2019-04-21T02:47:16.775Z,1022.50
2019-04-21T02:48:17.290Z,1022.51
2019-04-21T02:49:32.093Z,1022.52
2019-04-21T02:50:19.194Z,1022.50
2019-04-21T02:51:23.377Z,1022.48
2019-04-21T02:52:30.074Z,1022.54
2019-04-21T02:53:20.305Z,1022.51
2019-04-21T02:54:45.833Z,1022.49
2019-04-21T02:55:13.388Z,1022.48
2019-04-21T02:56:18.889Z,1022.44
2019-04-21T02:57:18.493Z,1022.49
2019-04-21T02:58:29.469Z,1022.47
2019-04-21T02:59:15.019Z,1022.43
2019-04-21T03:00:32.217Z,1022.42
2019-04-21T03:01:29.165Z,1022.39
2019-04-21T03:02:35.185Z,1022.40
2019-04-21T03:03:19.936Z,1022.34
2019-04-21T03:06:15.322Z,1022.31
2019-04-21T03:08:15.012Z,1022.37
2019-04-21T03:09:18.447Z,1022.41
2019-04-21T03:10:22.270Z,1022.38
2019-04-21T03:12:19.661Z,1022.35
2019-04-21T03:13:21.619Z,1022.34
2019-04-21T03:14:16.776Z,1022.31
2019-04-21T03:17:23.915Z,1022.30
2019-04-21T03:18:21.175Z,1022.33
2019-04-21T03:19:19.602Z,1022.33
2019-04-21T03:20:19.128Z,1022.33
2019-04-21T03:21:18.807Z,1022.30
2019-04-21T03:23:21.344Z,1022.28
2019-04-21T03:24:24.735Z,1022.31
2019-04-21T03:25:28.322Z,1022.34
2019-04-21T03:26:31.421Z,1022.24
2019-04-21T03:28:27.829Z,1022.23
2019-04-21T03:29:19.765Z,1022.21
2019-04-21T03:30:55.815Z,1022.20
2019-04-21T03:31:55.303Z,1022.20
2019-04-21T03:35:53.399Z,1022.17
2019-04-21T03:38:19.066Z,1022.10
2019-04-21T03:39:10.303Z,1022.14
2019-04-21T03:40:16.740Z,1022.12
2019-04-21T03:41:22.165Z,1022.12
2019-04-21T03:42:33.850Z,1022.08
2019-04-21T03:43:26.825Z,1022.06
2019-04-21T03:44:16.992Z,1022.06
2019-04-21T03:45:25.326Z,1022.11
2019-04-21T03:46:16.499Z,1022.07
2019-04-21T03:48:17.284Z,1022.09
2019-04-21T03:49:20.624Z,1022.11
2019-04-21T03:50:20.507Z,1022.17
2019-04-21T03:53:22.626Z,1022.11
2019-04-21T03:55:44.820Z,1022.09
2019-04-21T03:56:27.809Z,1022.06
2019-04-21T03:57:21.821Z,1022.08
2019-04-21T03:58:25.958Z,1022.05
2019-04-21T03:59:12.207Z,1022.08
2019-04-21T04:00:21.607Z,1022.13
2019-04-21T04:02:27.983Z,1022.11
2019-04-21T04:03:35.472Z,1022.10
2019-04-21T04:04:20.080Z,1022.13
2019-04-21T04:05:31.637Z,1022.12
2019-04-21T04:06:25.842Z,1022.09
2019-04-21T04:07:25.099Z,1022.09
2019-04-21T04:08:21.822Z,1022.06
2019-04-21T04:09:19.450Z,1022.06
2019-04-21T04:10:13.585Z,1022.05
2019-04-21T04:11:19.681Z,1022.10
2019-04-21T04:12:15.199Z,1022.05
2019-04-21T04:13:15.669Z,1022.10
2019-04-21T04:14:22.898Z,1022.11
2019-04-21T04:15:20.494Z,1022.04
2019-04-21T04:17:23.960Z,1022.03
2019-04-21T04:18:17.751Z,1022.03
2019-04-21T04:19:37.827Z,1022.07
2019-04-21T04:20:24.201Z,1022.01
2019-04-21T04:21:24.754Z,1022.05
2019-04-21T04:24:22.063Z,1022.09
2019-04-21T04:25:17.493Z,1022.03
2019-04-21T04:26:16.964Z,1021.98
2019-04-21T04:27:33.653Z,1022.05
2019-04-21T04:30:22.314Z,1022.09
2019-04-21T04:31:25.829Z,1022.13
2019-04-21T04:32:16.578Z,1022.13
2019-04-21T04:33:20.351Z,1022.12
2019-04-21T04:35:21.466Z,1022.15
2019-04-21T04:36:30.249Z,1022.14
2019-04-21T04:37:26.225Z,1022.12
2019-04-21T04:38:30.177Z,1022.11
2019-04-21T04:39:26.044Z,1022.08
2019-04-21T04:40:14.263Z,1022.12
2019-04-21T04:41:28.934Z,1022.12
2019-04-21T04:43:21.229Z,1022.09
2019-04-21T04:45:26.614Z,1022.11
2019-04-21T04:46:33.351Z,1022.11
2019-04-21T04:47:29.928Z,1022.10
2019-04-21T04:48:11.124Z,1022.08
2019-04-21T04:49:24.012Z,1022.11
2019-04-21T04:50:13.332Z,1022.11
2019-04-21T04:51:18.888Z,1022.11
2019-04-21T04:52:32.750Z,1022.08
2019-04-21T04:53:26.322Z,1022.13
2019-04-21T04:54:23.069Z,1022.08
2019-04-21T04:56:26.013Z,1022.08
2019-04-21T04:57:33.869Z,1022.06
2019-04-21T04:58:56.733Z,1022.11
2019-04-21T05:00:19.761Z,1022.06
2019-04-21T05:01:32.919Z,1022.10
2019-04-21T05:03:18.849Z,1022.02
2019-04-21T05:04:20.486Z,1022.01
2019-04-21T05:05:19.090Z,1022.01
2019-04-21T05:06:23.741Z,1021.98
2019-04-21T05:07:13.861Z,1021.99
2019-04-21T05:08:19.740Z,1022.01
2019-04-21T05:09:15.330Z,1021.98
2019-04-21T05:11:31.055Z,1022.04
2019-04-21T05:12:11.774Z,1022.02
2019-04-21T05:13:21.885Z,1022.00
2019-04-21T05:15:12.918Z,1022.01
2019-04-21T05:16:24.527Z,1022.04
2019-04-21T05:17:23.012Z,1022.03
2019-04-21T05:18:15.185Z,1022.03
2019-04-21T05:19:18.150Z,1022.05
2019-04-21T05:20:13.648Z,1021.99
2019-04-21T05:21:23.253Z,1022.04
2019-04-21T05:22:20.140Z,1022.04
2019-04-21T05:23:08.981Z,1021.98
2019-04-21T05:24:02.919Z,1022.03
2019-04-21T05:25:02.153Z,1021.99
2019-04-21T05:26:00.112Z,1021.91
2019-04-21T05:26:58.362Z,1021.96
2019-04-21T05:28:01.288Z,1021.99
2019-04-21T05:28:56.752Z,1021.97
2019-04-21T05:30:15.292Z,1021.98
2019-04-21T05:31:16.384Z,1021.98
2019-04-21T05:32:13.250Z,1021.92
2019-04-21T05:33:07.021Z,1021.97
2019-04-21T05:34:03.030Z,1022.02
2019-04-21T05:35:08.210Z,1021.96
2019-04-21T05:36:03.063Z,1022.01
2019-04-21T05:37:03.941Z,1022.01
2019-04-21T05:38:07.363Z,1022.02
2019-04-21T05:39:02.544Z,1022.05
2019-04-21T05:40:00.744Z,1022.03
2019-04-21T05:40:55.116Z,1021.99
2019-04-21T05:41:53.763Z,1022.04
2019-04-21T05:43:03.289Z,1022.06
2019-04-21T05:44:06.620Z,1022.00
2019-04-21T05:45:07.691Z,1022.02
2019-04-21T05:46:04.430Z,1021.93
2019-04-21T05:47:15.790Z,1021.95
2019-04-21T05:48:18.951Z,1021.99
2019-04-21T05:49:05.616Z,1021.96
2019-04-21T05:50:02.897Z,1021.93
2019-04-21T05:51:00.461Z,1021.95
2019-04-21T05:51:59.850Z,1021.96
2019-04-21T05:53:00.828Z,1021.94
2019-04-21T05:54:17.072Z,1021.92
2019-04-21T05:55:12.682Z,1021.99
2019-04-21T05:56:14.302Z,1021.94
2019-04-21T05:57:05.243Z,1022.03
2019-04-21T05:58:21.727Z,1022.01
2019-04-21T05:59:02.122Z,1021.99
2019-04-21T06:02:13.966Z,1021.99
2019-04-21T06:03:12.051Z,1021.97
2019-04-21T06:04:20.035Z,1022.01
2019-04-21T06:06:18.397Z,1022.04
2019-04-21T06:07:15.479Z,1022.10
2019-04-21T06:08:07.001Z,1022.07
2019-04-21T06:09:13.126Z,1022.10
2019-04-21T06:10:20.082Z,1022.09
2019-04-21T06:11:08.543Z,1022.11
2019-04-21T06:12:02.913Z,1022.05
2019-04-21T06:13:15.422Z,1022.01
2019-04-21T06:14:08.054Z,1022.07
2019-04-21T06:15:07.009Z,1022.13
2019-04-21T06:16:23.185Z,1022.14
2019-04-21T06:17:13.485Z,1022.10
2019-04-21T06:18:11.732Z,1022.08
2019-04-21T06:19:03.361Z,1022.03
2019-04-21T06:20:07.978Z,1022.07
2019-04-21T06:21:05.630Z,1022.08
2019-04-21T06:22:04.191Z,1021.99
2019-04-21T06:23:06.257Z,1022.05
2019-04-21T06:24:05.264Z,1022.09
2019-04-21T06:25:33.957Z,1022.06
2019-04-21T06:26:19.303Z,1022.01
2019-04-21T06:28:10.863Z,1022.00
2019-04-21T06:29:03.005Z,1022.02
2019-04-21T06:30:05.210Z,1022.00
2019-04-21T06:31:11.163Z,1022.02
2019-04-21T06:32:30.372Z,1022.05
2019-04-21T06:33:00.278Z,1022.00
2019-04-21T06:34:04.667Z,1022.08
2019-04-21T06:35:17.430Z,1022.07
2019-04-21T06:36:23.949Z,1022.06
2019-04-21T06:37:21.529Z,1022.06
2019-04-21T06:38:04.249Z,1022.08
2019-04-21T06:39:11.659Z,1022.05
2019-04-21T06:40:15.279Z,1022.09
2019-04-21T06:41:06.097Z,1022.09
2019-04-21T06:42:05.286Z,1022.07
2019-04-21T06:43:21.908Z,1022.10
2019-04-21T06:44:29.618Z,1022.14
2019-04-21T06:45:12.293Z,1022.12
2019-04-21T06:46:15.263Z,1022.08
2019-04-21T06:47:06.064Z,1022.12
2019-04-21T06:48:16.890Z,1022.10
2019-04-21T06:49:03.052Z,1022.06
2019-04-21T06:50:00.166Z,1022.05
2019-04-21T06:51:10.979Z,1022.05
2019-04-21T06:52:20.551Z,1022.08
2019-04-21T06:53:06.785Z,1022.11
2019-04-21T06:54:09.450Z,1022.11
2019-04-21T06:55:09.933Z,1022.05
2019-04-21T06:56:04.990Z,1022.06
2019-04-21T06:57:06.854Z,1022.12
2019-04-21T06:58:08.301Z,1022.13
2019-04-21T06:59:06.764Z,1022.10
2019-04-21T06:59:59.964Z,1022.06
2019-04-21T07:01:11.724Z,1022.04
2019-04-21T07:02:22.485Z,1022.06
2019-04-21T07:03:14.451Z,1022.05
2019-04-21T07:04:11.738Z,1022.04
2019-04-21T07:05:31.065Z,1022.09
2019-04-21T07:06:08.008Z,1022.07
2019-04-21T07:07:05.210Z,1022.07
2019-04-21T07:08:23.225Z,1022.08
2019-04-21T07:09:15.860Z,1022.12
2019-04-21T07:10:22.011Z,1022.10
2019-04-21T07:11:04.297Z,1022.08
2019-04-21T07:11:59.846Z,1022.09
2019-04-21T07:13:03.491Z,1022.14
2019-04-21T07:14:19.824Z,1022.15
2019-04-21T07:15:03.407Z,1022.16
2019-04-21T07:16:05.020Z,1022.11
2019-04-21T07:17:12.627Z,1022.12
2019-04-21T07:18:04.634Z,1022.13
2019-04-21T07:19:15.663Z,1022.11
2019-04-21T07:20:10.071Z,1022.18
2019-04-21T07:21:08.164Z,1022.13
2019-04-21T07:22:09.386Z,1022.17
2019-04-21T07:23:09.457Z,1022.21
2019-04-21T07:24:10.353Z,1022.17
2019-04-21T07:25:09.049Z,1022.16
2019-04-21T07:26:05.704Z,1022.21
2019-04-21T07:27:17.587Z,1022.17
2019-04-21T07:28:07.444Z,1022.16
2019-04-21T07:29:21.951Z,1022.21
2019-04-21T07:30:04.295Z,1022.18
2019-04-21T07:31:13.011Z,1022.15
2019-04-21T07:32:04.574Z,1022.17
2019-04-21T07:33:23.647Z,1022.22
2019-04-21T07:34:10.839Z,1022.12
2019-04-21T07:35:03.946Z,1022.13
2019-04-21T07:36:05.010Z,1022.17
2019-04-21T07:37:06.495Z,1022.16
2019-04-21T07:38:03.055Z,1022.15
2019-04-21T07:39:02.211Z,1022.16
2019-04-21T07:40:03.809Z,1022.16
2019-04-21T07:40:58.549Z,1022.20
2019-04-21T07:42:00.883Z,1022.17
2019-04-21T07:43:01.343Z,1022.16
2019-04-21T07:43:54.171Z,1022.17
2019-04-21T07:44:57.969Z,1022.14
2019-04-21T07:45:56.975Z,1022.16
2019-04-21T07:46:58.472Z,1022.14
2019-04-21T07:48:01.688Z,1022.15
2019-04-21T07:49:04.253Z,1022.08
2019-04-21T07:50:03.468Z,1022.11
2019-04-21T07:51:09.544Z,1022.21
2019-04-21T07:52:03.361Z,1022.09
2019-04-21T07:53:08.463Z,1022.14
2019-04-21T07:54:31.449Z,1022.13
2019-04-21T07:55:12.951Z,1022.15
2019-04-21T07:55:45.920Z,1022.12
2019-04-21T07:56:55.974Z,1022.12
2019-04-21T07:58:02.697Z,1022.12
2019-04-21T07:59:04.072Z,1022.12
2019-04-21T08:00:16.120Z,1022.11
2019-04-21T08:01:14.832Z,1022.11
2019-04-21T08:02:00.992Z,1022.08
2019-04-21T08:03:09.293Z,1022.07
2019-04-21T08:04:08.478Z,1022.14
2019-04-21T08:05:09.999Z,1022.09
2019-04-21T08:06:05.044Z,1022.12
2019-04-21T08:07:05.175Z,1022.06
2019-04-21T08:08:19.069Z,1022.05
2019-04-21T08:09:05.873Z,1022.06
2019-04-21T08:09:57.075Z,1022.09
2019-04-21T08:11:01.596Z,1022.10
2019-04-21T08:12:00.146Z,1022.01
2019-04-21T08:14:00.782Z,1022.09
2019-04-21T08:15:13.620Z,1022.07
2019-04-21T08:16:04.624Z,1022.01
2019-04-21T08:17:05.631Z,1022.02
2019-04-21T08:17:59.626Z,1022.01
2019-04-21T08:19:08.548Z,1022.04
2019-04-21T08:20:00.614Z,1022.08
2019-04-21T08:21:02.729Z,1022.06
2019-04-21T08:22:09.645Z,1021.97
2019-04-21T08:23:04.674Z,1022.03
2019-04-21T08:24:00.193Z,1022.01
2019-04-21T08:25:05.335Z,1021.97
2019-04-21T08:26:17.426Z,1021.99
2019-04-21T08:27:06.357Z,1021.99
2019-04-21T08:28:05.203Z,1021.98
2019-04-21T08:29:12.682Z,1022.01
2019-04-21T08:29:58.232Z,1022.05
2019-04-21T08:31:01.276Z,1021.95
2019-04-21T08:33:10.654Z,1021.97
2019-04-21T08:34:09.661Z,1021.91
2019-04-21T08:35:23.981Z,1021.98
2019-04-21T08:37:02.714Z,1021.94
2019-04-21T08:38:03.539Z,1021.92
2019-04-21T08:38:58.333Z,1021.95
2019-04-21T08:41:03.549Z,1021.90
2019-04-21T08:42:08.551Z,1021.87
2019-04-21T08:43:02.927Z,1021.89
2019-04-21T08:43:57.417Z,1021.87
2019-04-21T08:45:05.999Z,1021.84
2019-04-21T08:45:58.732Z,1021.85
2019-04-21T08:47:20.447Z,1021.87
2019-04-21T08:48:04.710Z,1021.89
2019-04-21T08:49:02.596Z,1021.90
2019-04-21T08:50:00.467Z,1021.88
2019-04-21T08:51:14.123Z,1021.89
2019-04-21T08:52:15.267Z,1021.91
2019-04-21T08:53:00.409Z,1021.86
2019-04-21T08:54:01.986Z,1021.89
2019-04-21T08:55:03.331Z,1021.86
2019-04-21T08:56:04.427Z,1021.83
2019-04-21T08:57:01.209Z,1021.83
2019-04-21T08:58:25.337Z,1021.86
2019-04-21T08:59:03.869Z,1021.87
2019-04-21T09:00:08.451Z,1021.81
2019-04-21T09:01:01.095Z,1021.81
2019-04-21T09:02:02.979Z,1021.87
2019-04-21T09:03:02.379Z,1021.85
2019-04-21T09:03:59.816Z,1021.85
2019-04-21T09:05:03.108Z,1021.82
2019-04-21T09:06:07.690Z,1021.81
2019-04-21T09:07:07.794Z,1021.80
2019-04-21T09:08:03.912Z,1021.72
2019-04-21T09:09:03.595Z,1021.76
2019-04-21T09:10:00.828Z,1021.79
2019-04-21T09:10:59.196Z,1021.76
2019-04-21T09:11:59.769Z,1021.71
2019-04-21T09:12:58.884Z,1021.73
2019-04-21T09:14:01.010Z,1021.73
2019-04-21T09:15:03.318Z,1021.61
2019-04-21T09:15:58.000Z,1021.68
2019-04-21T09:16:56.450Z,1021.70
2019-04-21T09:17:53.398Z,1021.73
2019-04-21T09:18:54.185Z,1021.70
2019-04-21T09:20:07.793Z,1021.72
2019-04-21T09:21:04.547Z,1021.66
2019-04-21T09:22:02.225Z,1021.64
2019-04-21T09:23:00.758Z,1021.68
2019-04-21T09:23:55.963Z,1021.67
2019-04-21T09:24:59.756Z,1021.72
2019-04-21T09:25:57.556Z,1021.68
2019-04-21T09:26:57.878Z,1021.64
2019-04-21T09:28:02.330Z,1021.68
2019-04-21T09:28:54.472Z,1021.63
2019-04-21T09:29:46.667Z,1021.68
2019-04-21T09:30:48.788Z,1021.61
2019-04-21T09:31:44.696Z,1021.63
2019-04-21T09:32:42.441Z,1021.55
2019-04-21T09:33:45.416Z,1021.52
2019-04-21T09:34:44.157Z,1021.50
2019-04-21T09:35:47.324Z,1021.50
2019-04-21T09:36:47.636Z,1021.47
2019-04-21T09:37:51.364Z,1021.52
2019-04-21T09:38:43.634Z,1021.45
2019-04-21T09:39:45.173Z,1021.47
2019-04-21T09:40:45.880Z,1021.46
2019-04-21T09:41:42.686Z,1021.47
2019-04-21T09:42:50.574Z,1021.46
2019-04-21T09:43:46.610Z,1021.43
2019-04-21T09:44:44.413Z,1021.44
2019-04-21T09:45:40.734Z,1021.46
2019-04-21T09:46:44.217Z,1021.43
2019-04-21T09:47:50.217Z,1021.36
2019-04-21T09:48:49.578Z,1021.38
2019-04-21T09:49:42.001Z,1021.38
2019-04-21T09:50:41.450Z,1021.35
2019-04-21T09:51:41.610Z,1021.32
2019-04-21T09:52:47.699Z,1021.35
2019-04-21T09:53:43.354Z,1021.33
2019-04-21T09:54:48.239Z,1021.31
2019-04-21T09:55:48.774Z,1021.32
2019-04-21T09:56:50.012Z,1021.25
2019-04-21T09:57:47.550Z,1021.28
2019-04-21T09:58:46.788Z,1021.27
2019-04-21T09:59:48.723Z,1021.26
2019-04-21T10:00:52.595Z,1021.18
2019-04-21T10:01:55.996Z,1021.18
2019-04-21T10:02:51.642Z,1021.17
2019-04-21T10:03:46.636Z,1021.10
2019-04-21T10:04:42.324Z,1021.17
2019-04-21T10:05:40.088Z,1021.12
2019-04-21T10:06:40.080Z,1021.13
2019-04-21T10:07:42.340Z,1021.10
2019-04-21T10:08:40.062Z,1021.05
2019-04-21T10:09:40.053Z,1021.02
2019-04-21T10:10:40.106Z,1021.02
2019-04-21T10:11:40.037Z,1021.00
2019-04-21T10:12:41.064Z,1021.01
2019-04-21T10:13:40.015Z,1021.01
2019-04-21T10:14:40.966Z,1021.00
2019-04-21T10:15:39.997Z,1020.98
2019-04-21T10:16:40.607Z,1020.99
2019-04-21T10:17:39.980Z,1020.97
2019-04-21T10:18:40.338Z,1020.96
2019-04-21T10:19:39.965Z,1020.98
2019-04-21T10:20:40.732Z,1020.94
2019-04-21T10:21:40.269Z,1020.93
2019-04-21T10:22:41.245Z,1020.93
2019-04-21T10:23:40.065Z,1020.87
2019-04-21T10:24:40.488Z,1020.85
2019-04-21T10:25:40.923Z,1020.87
2019-04-21T10:26:40.991Z,1020.87
2019-04-21T10:27:41.103Z,1020.89
2019-04-21T10:28:41.247Z,1020.84
2019-04-21T10:29:43.192Z,1020.82
2019-04-21T10:30:40.865Z,1020.85
2019-04-21T10:31:40.756Z,1020.77
2019-04-21T10:32:40.619Z,1020.74
2019-04-21T10:33:40.040Z,1020.71
2019-04-21T10:34:41.098Z,1020.73
2019-04-21T10:35:41.209Z,1020.76
2019-04-21T10:36:40.796Z,1020.69
2019-04-21T10:37:49.795Z,1020.70
2019-04-21T10:38:46.464Z,1020.69
2019-04-21T10:39:41.844Z,1020.76
2019-04-21T10:40:39.785Z,1020.68
2019-04-21T10:41:39.770Z,1020.64
2019-04-21T10:42:40.435Z,1020.60
2019-04-21T10:43:41.001Z,1020.63
2019-04-21T10:44:40.921Z,1020.60
2019-04-21T10:45:40.976Z,1020.58
2019-04-21T10:46:40.602Z,1020.54
2019-04-21T10:47:41.054Z,1020.54
2019-04-21T10:48:40.983Z,1020.58
2019-04-21T10:49:40.307Z,1020.53
2019-04-21T10:50:41.071Z,1020.50
2019-04-21T10:51:39.692Z,1020.52
2019-04-21T10:52:40.628Z,1020.49
2019-04-21T10:53:40.820Z,1020.52
2019-04-21T10:55:05.648Z,1020.45
2019-04-21T10:55:56.437Z,1020.50
2019-04-21T10:56:43.812Z,1020.43
2019-04-21T10:57:40.260Z,1020.40
2019-04-21T10:58:40.451Z,1020.44
2019-04-21T10:59:47.082Z,1020.43
2019-04-21T11:00:41.936Z,1020.39
2019-04-21T11:01:41.057Z,1020.38
2019-04-21T11:02:39.582Z,1020.32
2019-04-21T11:03:40.500Z,1020.32
2019-04-21T11:04:40.600Z,1020.29
2019-04-21T11:05:40.730Z,1020.28
2019-04-21T11:06:39.555Z,1020.24
2019-04-21T11:07:53.061Z,1020.23
2019-04-21T11:08:44.983Z,1020.23
2019-04-21T11:09:40.519Z,1020.18
2019-04-21T11:10:40.012Z,1020.14
2019-04-21T11:11:39.762Z,1020.25
2019-04-21T11:12:40.967Z,1020.24
2019-04-21T11:13:40.810Z,1020.19
2019-04-21T11:14:39.476Z,1020.16
2019-04-21T11:15:39.465Z,1020.14
2019-04-21T11:16:39.456Z,1020.13
2019-04-21T11:17:41.809Z,1020.11
2019-04-21T11:18:39.902Z,1020.10
2019-04-21T11:19:39.429Z,1020.08
2019-04-21T11:20:40.541Z,1020.05
2019-04-21T11:21:40.774Z,1020.00
2019-04-21T11:22:40.113Z,1019.95
2019-04-21T11:23:40.486Z,1019.96
2019-04-21T11:24:40.752Z,1019.93
2019-04-21T11:25:39.980Z,1019.95
2019-04-21T11:26:40.124Z,1019.92
2019-04-21T11:27:40.549Z,1019.95
2019-04-21T11:28:39.343Z,1019.91
2019-04-21T11:29:39.334Z,1019.89
2019-04-21T11:30:39.325Z,1019.91
2019-04-21T11:31:39.316Z,1019.92
2019-04-21T11:32:42.054Z,1019.88
2019-04-21T11:33:39.541Z,1019.87
2019-04-21T11:34:39.294Z,1019.85
2019-04-21T11:35:39.379Z,1019.84
2019-04-21T11:36:40.399Z,1019.80
2019-04-21T11:37:39.910Z,1019.81
2019-04-21T11:38:58.454Z,1019.80
2019-04-21T11:39:50.154Z,1019.78
2019-04-21T11:40:40.237Z,1019.74
2019-04-21T11:41:39.457Z,1019.76
2019-04-21T11:42:39.797Z,1019.75
2019-04-21T11:43:39.245Z,1019.72
2019-04-21T11:44:39.562Z,1019.72
2019-04-21T11:45:40.107Z,1019.71
2019-04-21T11:46:40.375Z,1019.67
2019-04-21T11:47:40.579Z,1019.67
2019-04-21T11:48:39.981Z,1019.69
2019-04-21T11:49:39.154Z,1019.66
2019-04-21T11:50:39.279Z,1019.64
2019-04-21T11:51:39.135Z,1019.58
2019-04-21T11:52:39.129Z,1019.56
2019-04-21T11:53:39.193Z,1019.66
2019-04-21T11:54:40.522Z,1019.61
2019-04-21T11:55:43.148Z,1019.63
2019-04-21T11:56:40.984Z,1019.56
2019-04-21T11:57:42.796Z,1019.51
2019-04-21T11:58:40.070Z,1019.52
2019-04-21T11:59:39.669Z,1019.44
2019-04-21T12:00:39.924Z,1019.41
2019-04-21T12:01:39.430Z,1019.40
2019-04-21T12:02:39.590Z,1019.38
2019-04-21T12:03:39.952Z,1019.40
2019-04-21T12:04:39.347Z,1019.32
2019-04-21T12:05:39.503Z,1019.25
2019-04-21T12:06:45.399Z,1019.23
2019-04-21T12:07:40.914Z,1019.21
2019-04-21T12:08:43.027Z,1019.13
2019-04-21T12:09:39.971Z,1019.12
2019-04-21T12:10:39.720Z,1019.06
2019-04-21T12:11:39.131Z,1019.02
2019-04-21T12:12:39.266Z,1019.04
2019-04-21T12:13:40.238Z,1018.96
2019-04-21T12:14:39.736Z,1018.96
2019-04-21T12:15:39.131Z,1018.99
2019-04-21T12:16:39.214Z,1018.96
2019-04-21T12:17:39.519Z,1018.93
2019-04-21T12:18:38.893Z,1018.92
2019-04-21T12:19:38.875Z,1018.93
2019-04-21T12:20:39.689Z,1018.93
2019-04-21T12:21:51.826Z,1018.90
2019-04-21T12:22:41.087Z,1018.94
2019-04-21T12:23:38.839Z,1018.93
2019-04-21T12:24:39.669Z,1018.87
2019-04-21T12:25:39.047Z,1018.92
2019-04-21T12:26:40.081Z,1018.93
2019-04-21T12:27:40.072Z,1018.86
2019-04-21T12:28:39.835Z,1018.91
2019-04-21T12:29:39.892Z,1018.89
2019-04-21T12:30:39.849Z,1018.85
2019-04-21T12:31:39.261Z,1018.83
2019-04-21T12:32:40.037Z,1018.83
2019-04-21T12:33:40.048Z,1018.81
2019-04-21T12:34:39.720Z,1018.86
2019-04-21T12:35:39.726Z,1018.83
2019-04-21T12:36:39.949Z,1018.83
2019-04-21T12:37:38.704Z,1018.80
2019-04-21T12:38:46.882Z,1018.78
2019-04-21T12:39:40.878Z,1018.73
2019-04-21T12:40:38.896Z,1018.73
2019-04-21T12:41:38.663Z,1018.66
2019-04-21T12:42:40.382Z,1018.66
2019-04-21T12:43:38.968Z,1018.63
2019-04-21T12:44:39.172Z,1018.60
2019-04-21T12:45:39.898Z,1018.59
2019-04-21T12:46:38.622Z,1018.59
2019-04-21T12:47:39.783Z,1018.58
2019-04-21T12:48:39.918Z,1018.58
2019-04-21T12:49:39.812Z,1018.54